Time;durP1;ratioP1;P1;durP2;ratioP2;P2;SDS_P1;SDS_P2;PMS_P1;PMS_P2;Temp;Humidity;BMP_temperature;BMP_pressure;BME280_temperature;BME280_humidity;BME280_pressure;Samples;Min_cycle;Max_cycle;Signal;HPM_P1;HPM_P2
2023/12/03 00:02:09;;;;;;;19.15;9.85;;;-0.20;99.90;;;;;;4997813;28;20498;-57
2023/12/03 00:04:36;;;;;;;19.65;10.05;;;-0.30;99.90;;;;;;4996607;28;20132;-51
2023/12/03 00:07:02;;;;;;;17.80;9.77;;;-0.30;99.90;;;;;;4995741;28;20050;-56
2023/12/03 00:09:28;;;;;;;17.70;9.80;;;-0.30;99.90;;;;;;4997016;28;20057;-57
2023/12/03 00:11:53;;;;;;;18.38;10.30;;;-0.30;99.90;;;;;;4994537;28;20042;-55
2023/12/03 00:14:19;;;;;;;19.10;9.85;;;-0.30;99.90;;;;;;4995717;28;20399;-57
2023/12/03 00:16:45;;;;;;;19.45;9.85;;;-0.30;99.90;;;;;;4996304;28;20074;-55
2023/12/03 00:19:10;;;;;;;16.33;9.15;;;-0.30;99.90;;;;;;5001662;28;20495;-57
2023/12/03 00:21:36;;;;;;;19.90;10.10;;;-0.30;99.90;;;;;;4999031;28;20045;-53
2023/12/03 00:24:02;;;;;;;19.23;9.73;;;-0.40;99.90;;;;;;5001205;28;20394;-52
2023/12/03 00:26:28;;;;;;;18.80;9.65;;;-0.40;99.90;;;;;;4999997;28;20148;-56
2023/12/03 00:28:54;;;;;;;17.65;10.10;;;-0.40;99.90;;;;;;4998064;28;20452;-57
2023/12/03 00:31:20;;;;;;;17.77;9.48;;;-0.30;99.90;;;;;;4995930;28;20512;-57
2023/12/03 00:33:45;;;;;;;17.05;8.98;;;-0.40;99.90;;;;;;4986169;28;20045;-55
2023/12/03 00:36:11;;;;;;;16.73;9.45;;;-0.40;99.90;;;;;;4995718;28;20084;-56
2023/12/03 00:38:37;;;;;;;18.35;9.43;;;-0.40;99.90;;;;;;4997951;28;20092;-56
2023/12/03 00:41:03;;;;;;;13.68;9.23;;;-0.40;99.90;;;;;;4977259;28;20121;-57
2023/12/03 00:43:28;;;;;;;16.02;8.48;;;-0.40;99.90;;;;;;4977399;28;20041;-55
2023/12/03 00:45:54;;;;;;;15.88;9.15;;;-0.40;99.90;;;;;;4994707;28;20125;-56
2023/12/03 00:48:20;;;;;;;14.63;8.52;;;-0.50;99.90;;;;;;4991050;28;20038;-55
2023/12/03 00:50:46;;;;;;;13.68;8.52;;;-0.50;99.90;;;;;;4976952;28;20272;-55
2023/12/03 00:53:12;;;;;;;18.13;8.43;;;-0.50;99.90;;;;;;4994071;28;20398;-54
2023/12/03 00:55:37;;;;;;;16.88;8.23;;;-0.50;99.90;;;;;;4990183;28;20052;-52
2023/12/03 00:58:03;;;;;;;15.05;7.88;;;-0.50;99.90;;;;;;4992612;28;20049;-52
2023/12/03 01:00:29;;;;;;;15.57;8.77;;;-0.50;99.90;;;;;;5000992;28;20753;-55
2023/12/03 01:02:55;;;;;;;15.10;8.77;;;-0.50;99.90;;;;;;5003176;28;20034;-57
2023/12/03 01:05:20;;;;;;;14.60;8.73;;;-0.60;99.90;;;;;;4993912;28;20041;-54
2023/12/03 01:07:46;;;;;;;12.90;8.10;;;-0.60;99.90;;;;;;4998979;28;20128;-56
2023/12/03 01:10:12;;;;;;;15.48;8.52;;;-0.60;99.90;;;;;;4999484;28;20041;-54
2023/12/03 01:12:37;;;;;;;14.98;8.65;;;-0.60;99.90;;;;;;4996502;28;20605;-57
2023/12/03 01:15:03;;;;;;;13.75;8.68;;;-0.60;99.90;;;;;;4999046;28;20099;-57
2023/12/03 01:17:29;;;;;;;16.98;8.85;;;-0.60;99.90;;;;;;4997393;28;20041;-53
2023/12/03 01:19:55;;;;;;;16.50;8.65;;;-0.60;99.90;;;;;;4995098;28;20038;-57
2023/12/03 01:22:20;;;;;;;16.27;8.90;;;-0.60;99.90;;;;;;4993248;28;20137;-54
2023/12/03 01:24:46;;;;;;;14.68;8.88;;;-0.70;99.90;;;;;;4994305;28;20042;-56
2023/12/03 01:27:12;;;;;;;15.80;8.38;;;-0.70;99.90;;;;;;4996140;28;20137;-51
2023/12/03 01:29:38;;;;;;;16.50;7.80;;;-0.80;99.90;;;;;;4995028;28;20101;-55
2023/12/03 01:32:05;;;;;;;14.30;8.00;;;-0.80;99.90;;;;;;4991907;28;20039;-55
2023/12/03 01:34:31;;;;;;;12.82;7.53;;;-0.80;99.90;;;;;;4992076;28;20160;-56
2023/12/03 01:36:57;;;;;;;13.30;8.40;;;-0.80;99.90;;;;;;4992104;28;20110;-52
2023/12/03 01:39:23;;;;;;;12.70;7.55;;;-0.80;99.90;;;;;;4990949;28;20557;-55
2023/12/03 01:41:52;;;;;;;12.32;7.45;;;-0.80;99.90;;;;;;4990484;28;20046;-55
2023/12/03 01:44:18;;;;;;;11.55;7.60;;;-0.80;99.90;;;;;;4989918;28;20054;-56
2023/12/03 01:46:48;;;;;;;11.25;7.43;;;-0.90;99.90;;;;;;4994559;28;20041;-56
2023/12/03 01:49:14;;;;;;;10.60;6.60;;;-0.90;99.90;;;;;;5001020;28;20056;-55
2023/12/03 01:51:40;;;;;;;10.23;6.40;;;-0.90;99.90;;;;;;4986366;28;20046;-55
2023/12/03 01:54:06;;;;;;;9.73;6.60;;;-0.90;99.90;;;;;;5004595;28;20369;-56
2023/12/03 01:56:32;;;;;;;10.93;6.53;;;-0.90;99.90;;;;;;4997272;28;20042;-56
2023/12/03 01:58:58;;;;;;;10.88;6.70;;;-1.00;99.90;;;;;;4997061;28;20052;-54
2023/12/03 02:01:24;;;;;;;9.48;6.63;;;-1.00;99.90;;;;;;4995270;28;20038;-55
2023/12/03 02:03:50;;;;;;;11.40;6.25;;;-0.90;99.90;;;;;;4996490;28;20034;-56
2023/12/03 02:06:16;;;;;;;10.80;6.38;;;-1.00;99.90;;;;;;4995600;28;20111;-57
2023/12/03 02:08:42;;;;;;;10.10;6.13;;;-1.00;99.90;;;;;;4994689;28;20424;-56
2023/12/03 02:11:08;;;;;;;10.15;6.03;;;-1.00;99.90;;;;;;4992851;28;20053;-55
2023/12/03 02:13:36;;;;;;;9.77;6.18;;;-1.00;99.90;;;;;;4990340;28;20046;-56
2023/12/03 02:16:02;;;;;;;10.85;6.07;;;-1.00;99.90;;;;;;4993544;28;20057;-57
2023/12/03 02:18:29;;;;;;;7.47;5.63;;;-1.00;99.90;;;;;;4991155;28;20050;-56
2023/12/03 02:20:55;;;;;;;11.80;6.53;;;-1.10;99.90;;;;;;4974919;28;20086;-53
2023/12/03 02:23:21;;;;;;;9.00;6.00;;;-1.10;99.90;;;;;;4990447;28;20049;-56
2023/12/03 02:25:48;;;;;;;7.72;5.57;;;-1.10;99.90;;;;;;4991995;28;20050;-51
2023/12/03 02:28:14;;;;;;;8.25;5.20;;;-1.10;99.90;;;;;;4989701;28;20442;-55
2023/12/03 02:30:40;;;;;;;7.93;5.78;;;-1.10;99.90;;;;;;4990432;28;20070;-52
2023/12/03 02:33:06;;;;;;;9.38;5.70;;;-1.10;99.90;;;;;;4998996;28;20045;-52
2023/12/03 02:35:32;;;;;;;10.27;5.78;;;-1.00;99.90;;;;;;4999933;28;20034;-56
2023/12/03 02:37:57;;;;;;;10.10;5.72;;;-1.10;99.90;;;;;;4999578;28;20481;-53
2023/12/03 02:40:23;;;;;;;6.43;4.80;;;-1.10;99.90;;;;;;4999835;28;20120;-56
2023/12/03 02:42:49;;;;;;;8.57;5.30;;;-1.10;99.90;;;;;;4999064;28;20444;-56
2023/12/03 02:45:14;;;;;;;7.70;5.05;;;-1.10;99.90;;;;;;4999115;28;20042;-51
2023/12/03 02:47:40;;;;;;;8.52;5.38;;;-1.00;99.90;;;;;;4995482;28;20060;-57
2023/12/03 02:50:06;;;;;;;8.88;5.35;;;-1.10;99.90;;;;;;4995170;28;20494;-53
2023/12/03 02:52:32;;;;;;;7.53;5.05;;;-1.10;99.90;;;;;;4996064;28;20100;-56
2023/12/03 02:54:58;;;;;;;7.78;5.63;;;-1.10;99.90;;;;;;4997186;28;20541;-56
2023/12/03 02:57:23;;;;;;;9.95;5.78;;;-1.00;99.90;;;;;;4991037;28;20449;-54
2023/12/03 02:59:49;;;;;;;11.40;6.25;;;-1.10;99.90;;;;;;4981647;28;20125;-57
2023/12/03 03:02:15;;;;;;;9.13;6.25;;;-1.10;99.90;;;;;;4996264;28;20104;-53
2023/12/03 03:04:41;;;;;;;8.98;5.47;;;-1.20;99.90;;;;;;4992105;28;20049;-56
2023/12/03 03:07:07;;;;;;;8.98;6.38;;;-1.20;99.90;;;;;;4992864;28;20041;-53
2023/12/03 03:09:32;;;;;;;9.23;6.22;;;-1.20;99.90;;;;;;4993177;28;20498;-55
2023/12/03 03:11:58;;;;;;;9.20;6.35;;;-1.20;99.90;;;;;;4992619;28;20654;-56
2023/12/03 03:14:24;;;;;;;8.57;6.10;;;-1.20;99.90;;;;;;4988234;28;20046;-56
2023/12/03 03:16:50;;;;;;;7.97;6.03;;;-1.30;99.90;;;;;;4991186;28;20042;-55
2023/12/03 03:19:16;;;;;;;9.05;5.78;;;-1.30;99.90;;;;;;4972453;28;20073;-52
2023/12/03 03:21:41;;;;;;;9.27;5.85;;;-1.30;99.90;;;;;;4987733;28;20117;-56
2023/12/03 03:24:07;;;;;;;10.40;6.22;;;-1.40;99.90;;;;;;4990712;28;20049;-54
2023/12/03 03:26:33;;;;;;;11.48;6.63;;;-1.40;99.90;;;;;;4996297;28;20113;-55
2023/12/03 03:28:59;;;;;;;11.23;7.10;;;-1.40;99.90;;;;;;4997710;28;20127;-56
2023/12/03 03:31:24;;;;;;;10.13;6.68;;;-1.40;99.90;;;;;;4998189;28;20070;-55
2023/12/03 03:33:50;;;;;;;11.68;6.45;;;-1.40;99.90;;;;;;4997236;28;20076;-55
2023/12/03 03:36:16;;;;;;;10.15;6.22;;;-1.40;99.90;;;;;;4996816;28;20069;-57
2023/12/03 03:38:45;;;;;;;9.10;6.93;;;-1.40;99.90;;;;;;4996377;28;20565;-56
2023/12/03 03:41:11;;;;;;;11.23;6.38;;;-1.40;99.90;;;;;;4994562;28;20042;-53
2023/12/03 03:43:37;;;;;;;10.85;6.80;;;-1.40;99.90;;;;;;4996337;28;20060;-56
2023/12/03 03:46:03;;;;;;;11.15;6.88;;;-1.40;99.90;;;;;;4996964;28;20065;-56
2023/12/03 03:48:29;;;;;;;9.82;6.85;;;-1.40;99.90;;;;;;4994241;28;20045;-56
2023/12/03 03:50:55;;;;;;;13.75;6.10;;;-1.40;99.90;;;;;;4991670;28;20483;-55
2023/12/03 03:53:21;;;;;;;12.27;6.10;;;-1.50;99.90;;;;;;4991064;28;20046;-55
2023/12/03 03:55:47;;;;;;;9.18;6.40;;;-1.50;99.90;;;;;;4992201;28;20458;-55
2023/12/03 03:58:13;;;;;;;9.73;6.18;;;-1.50;99.90;;;;;;4993728;28;20054;-57
2023/12/03 04:00:39;;;;;;;11.52;6.57;;;-1.50;99.90;;;;;;4993545;28;20038;-50
2023/12/03 04:03:05;;;;;;;11.70;7.55;;;-1.50;99.90;;;;;;4991721;28;20049;-56
2023/12/03 04:05:30;;;;;;;11.98;7.18;;;-1.40;99.90;;;;;;4994026;28;20046;-56
2023/12/03 04:07:56;;;;;;;11.93;7.85;;;-1.40;99.90;;;;;;5001137;28;20042;-57
2023/12/03 04:10:22;;;;;;;10.90;7.00;;;-1.40;99.90;;;;;;5002524;28;20147;-55
2023/12/03 04:12:48;;;;;;;14.05;7.50;;;-1.40;99.90;;;;;;4983120;28;20046;-56
2023/12/03 04:15:14;;;;;;;13.15;7.72;;;-1.30;99.90;;;;;;5000766;28;20497;-56
2023/12/03 04:17:39;;;;;;;13.93;7.88;;;-1.40;99.90;;;;;;4999151;28;20034;-54
2023/12/03 04:20:06;;;;;;;13.25;7.32;;;-1.40;99.90;;;;;;4999252;28;20291;-57
2023/12/03 04:22:33;;;;;;;13.23;7.20;;;-1.30;99.90;;;;;;4998529;28;20624;-56
2023/12/03 04:24:58;;;;;;;9.70;6.78;;;-1.30;99.90;;;;;;4997467;28;20402;-55
2023/12/03 04:27:25;;;;;;;10.00;7.45;;;-1.40;99.90;;;;;;4997318;28;20054;-56
2023/12/03 04:29:51;;;;;;;11.82;7.50;;;-1.30;99.90;;;;;;4994827;28;20049;-55
2023/12/03 04:32:16;;;;;;;11.82;7.90;;;-1.40;99.90;;;;;;4995507;28;20056;-55
2023/12/03 04:34:42;;;;;;;11.05;7.88;;;-1.30;99.90;;;;;;4996597;28;20049;-53
2023/12/03 04:37:08;;;;;;;10.13;7.30;;;-1.30;99.90;;;;;;4994559;28;20041;-56
2023/12/03 04:39:34;;;;;;;12.50;7.90;;;-1.30;99.90;;;;;;4995769;28;20078;-56
2023/12/03 04:42:01;;;;;;;14.20;8.50;;;-1.30;99.90;;;;;;4993488;28;20049;-53
2023/12/03 04:44:27;;;;;;;13.43;8.85;;;-1.30;99.90;;;;;;4991395;28;20695;-55
2023/12/03 04:46:53;;;;;;;14.80;9.70;;;-1.30;99.90;;;;;;4974907;28;20627;-56
2023/12/03 04:49:19;;;;;;;12.98;8.85;;;-1.30;99.90;;;;;;4975600;28;20406;-54
2023/12/03 04:51:44;;;;;;;16.27;10.50;;;-1.30;99.90;;;;;;4974911;28;20038;-55
2023/12/03 04:54:10;;;;;;;14.48;9.02;;;-1.30;99.90;;;;;;4994115;28;20045;-56
2023/12/03 04:56:36;;;;;;;15.15;9.82;;;-1.30;99.90;;;;;;4993364;28;20046;-56
2023/12/03 04:59:01;;;;;;;16.48;9.85;;;-1.20;99.90;;;;;;4996636;28;20167;-55
2023/12/03 05:01:27;;;;;;;34.10;10.20;;;-1.30;99.90;;;;;;4994516;28;20045;-55
2023/12/03 05:03:53;;;;;;;32.53;10.40;;;-1.30;99.90;;;;;;5001846;28;20052;-49
2023/12/03 05:06:19;;;;;;;36.85;11.85;;;-1.30;99.90;;;;;;4984271;28;20046;-56
2023/12/03 05:08:45;;;;;;;40.03;10.75;;;-1.30;99.90;;;;;;4999394;28;20475;-56
2023/12/03 05:11:10;;;;;;;22.20;10.85;;;-1.30;99.90;;;;;;4982288;28;20169;-55
2023/12/03 05:13:36;;;;;;;42.05;11.70;;;-1.30;99.90;;;;;;4998924;28;20104;-56
2023/12/03 05:16:04;;;;;;;48.50;12.43;;;-1.30;99.90;;;;;;5000088;28;20084;-56
2023/12/03 05:18:30;;;;;;;28.63;12.85;;;-1.30;99.90;;;;;;5000003;28;20049;-55
2023/12/03 05:20:57;;;;;;;30.02;12.30;;;-1.30;99.90;;;;;;4998387;28;20113;-54
2023/12/03 05:23:23;;;;;;;38.80;13.57;;;-1.30;99.90;;;;;;4997484;28;20045;-56
2023/12/03 05:25:49;;;;;;;26.65;13.95;;;-1.30;99.90;;;;;;4996943;28;20057;-54
2023/12/03 05:28:15;;;;;;;27.33;14.75;;;-1.30;99.90;;;;;;4983572;28;20833;-56
2023/12/03 05:30:41;;;;;;;34.00;14.77;;;-1.30;99.90;;;;;;5002202;28;20235;-56
2023/12/03 05:33:06;;;;;;;26.42;14.25;;;-1.30;99.90;;;;;;4998157;28;20137;-55
2023/12/03 05:35:32;;;;;;;45.58;16.23;;;-1.30;99.90;;;;;;4998882;28;20046;-57
2023/12/03 05:37:58;;;;;;;46.08;16.38;;;-1.20;99.90;;;;;;4996795;28;20088;-56
2023/12/03 05:40:24;;;;;;;34.75;16.80;;;-1.20;99.90;;;;;;4998046;28;20073;-56
2023/12/03 05:42:50;;;;;;;59.35;16.85;;;-1.30;99.90;;;;;;4997325;28;20499;-55
2023/12/03 05:45:16;;;;;;;61.30;18.45;;;-1.20;99.90;;;;;;4995467;28;20045;-53
2023/12/03 05:47:41;;;;;;;54.78;19.30;;;-1.30;99.90;;;;;;4994078;28;20073;-56
2023/12/03 05:50:07;;;;;;;59.70;21.00;;;-1.20;99.90;;;;;;4994895;28;20038;-54
2023/12/03 05:52:33;;;;;;;79.75;21.48;;;-1.20;99.90;;;;;;4991570;28;20042;-54
2023/12/03 05:54:59;;;;;;;80.45;23.05;;;-1.20;99.90;;;;;;4993545;28;20513;-54
2023/12/03 05:57:24;;;;;;;58.25;24.23;;;-1.20;99.90;;;;;;4992342;28;20462;-57
2023/12/03 05:59:51;;;;;;;86.13;23.75;;;-1.10;99.90;;;;;;4994424;28;20077;-55
2023/12/03 06:02:17;;;;;;;92.78;25.15;;;-1.00;99.90;;;;;;4992824;28;20431;-53
2023/12/03 06:04:43;;;;;;;122.20;27.02;;;-1.10;99.90;;;;;;4992730;28;20202;-56
2023/12/03 06:07:09;;;;;;;131.05;28.98;;;-1.00;99.90;;;;;;4994858;28;20030;-51
2023/12/03 06:09:34;;;;;;;121.57;27.70;;;-1.00;99.90;;;;;;4992128;28;20042;-52
2023/12/03 06:12:00;;;;;;;96.28;28.83;;;-0.90;99.90;;;;;;4992361;28;20042;-56
2023/12/03 06:14:26;;;;;;;117.07;29.58;;;-0.80;99.90;;;;;;4989572;28;20048;-54
2023/12/03 06:16:52;;;;;;;118.47;30.58;;;-0.80;99.90;;;;;;4998502;28;20046;-55
2023/12/03 06:19:18;;;;;;;177.07;32.17;;;-0.80;99.90;;;;;;5002240;28;20168;-54
2023/12/03 06:21:44;;;;;;;122.97;32.25;;;-0.70;99.90;;;;;;5006144;28;20038;-57
2023/12/03 06:24:09;;;;;;;112.43;31.50;;;-0.70;99.90;;;;;;5001417;28;20042;-56
2023/12/03 06:26:35;;;;;;;116.38;31.70;;;-0.70;99.90;;;;;;4999335;28;20076;-55
2023/12/03 06:29:01;;;;;;;176.35;34.60;;;-0.60;99.90;;;;;;5001490;28;20160;-55
2023/12/03 06:31:27;;;;;;;177.02;36.30;;;-0.60;99.90;;;;;;4983144;28;20502;-55
2023/12/03 06:33:53;;;;;;;153.05;33.50;;;-0.60;99.90;;;;;;5001311;28;20046;-57
2023/12/03 06:36:19;;;;;;;111.28;30.60;;;-0.50;99.90;;;;;;4994503;28;20493;-54
2023/12/03 06:38:45;;;;;;;173.40;34.05;;;-0.50;99.90;;;;;;4997860;28;20069;-52
2023/12/03 06:41:10;;;;;;;183.63;33.50;;;-0.40;99.90;;;;;;4997578;28;20054;-52
2023/12/03 06:43:36;;;;;;;114.45;30.13;;;-0.40;99.90;;;;;;4994510;28;20092;-52
2023/12/03 06:46:02;;;;;;;138.70;30.92;;;-0.30;99.90;;;;;;4995575;28;20422;-56
2023/12/03 06:48:28;;;;;;;167.52;30.80;;;-0.30;99.90;;;;;;4993836;28;20072;-56
2023/12/03 06:50:54;;;;;;;106.40;26.50;;;-0.30;99.90;;;;;;4994487;28;20578;-55
2023/12/03 06:53:19;;;;;;;109.65;27.65;;;-0.30;99.90;;;;;;4992313;28;20045;-56
2023/12/03 06:55:45;;;;;;;158.75;29.02;;;-0.20;99.90;;;;;;4993766;28;20053;-57
2023/12/03 06:58:11;;;;;;;126.22;28.15;;;-0.20;99.90;;;;;;4993149;28;20771;-52
2023/12/03 07:00:37;;;;;;;173.00;30.23;;;-0.20;99.90;;;;;;4992867;28;20153;-55
2023/12/03 07:03:03;;;;;;;138.95;27.08;;;-0.20;99.90;;;;;;4991558;28;20542;-56
2023/12/03 07:05:28;;;;;;;139.88;28.20;;;-0.10;99.90;;;;;;4989626;28;20042;-53
2023/12/03 07:07:54;;;;;;;115.57;26.17;;;-0.10;99.90;;;;;;4991560;28;20522;-55
2023/12/03 07:10:20;;;;;;;125.28;25.75;;;-0.10;99.90;;;;;;4992309;28;20483;-56
2023/12/03 07:12:46;;;;;;;115.47;25.08;;;-0.10;99.90;;;;;;4992939;28;20038;-53
2023/12/03 07:15:11;;;;;;;188.30;27.88;;;0.00;99.90;;;;;;4993238;28;20046;-56
2023/12/03 07:17:39;;;;;;;113.28;24.17;;;0.00;99.90;;;;;;4989712;28;20521;-56
2023/12/03 07:20:06;;;;;;;122.20;24.75;;;0.00;99.90;;;;;;4991122;28;20380;-56
2023/12/03 07:22:32;;;;;;;132.40;23.02;;;0.00;99.90;;;;;;4990303;28;20061;-55
2023/12/03 07:24:58;;;;;;;122.43;23.42;;;0.00;99.90;;;;;;4991550;28;20042;-56
2023/12/03 07:27:24;;;;;;;140.50;25.52;;;0.10;99.90;;;;;;4992386;28;20049;-54
2023/12/03 07:29:54;;;;;;;126.40;24.65;;;0.10;99.90;;;;;;4989587;28;20038;-57
2023/12/03 07:32:22;;;;;;;130.98;25.02;;;0.10;99.90;;;;;;4996764;28;20049;-53
2023/12/03 07:34:47;;;;;;;96.18;22.05;;;0.10;99.90;;;;;;5006729;28;20165;-56
2023/12/03 07:37:13;;;;;;;111.47;23.33;;;0.10;99.90;;;;;;5005742;28;20518;-51
2023/12/03 07:39:39;;;;;;;163.43;25.00;;;0.10;99.90;;;;;;5001981;28;20335;-56
2023/12/03 07:42:05;;;;;;;131.13;23.73;;;0.20;99.90;;;;;;5003973;28;20072;-55
2023/12/03 07:44:30;;;;;;;119.75;23.40;;;0.20;99.90;;;;;;4999201;28;20482;-54
2023/12/03 07:46:56;;;;;;;157.13;23.40;;;0.20;99.90;;;;;;5000566;28;20041;-56
2023/12/03 07:49:22;;;;;;;106.45;22.63;;;0.20;99.90;;;;;;4996845;28;20042;-52
2023/12/03 07:51:47;;;;;;;118.72;23.35;;;0.20;99.90;;;;;;4999323;28;20581;-56
2023/12/03 07:54:13;;;;;;;116.25;23.70;;;0.20;99.90;;;;;;4997829;28;20053;-53
2023/12/03 07:56:40;;;;;;;128.07;22.95;;;0.20;99.90;;;;;;4998399;28;20042;-52
2023/12/03 07:59:07;;;;;;;116.10;23.83;;;0.30;99.90;;;;;;4997333;28;20136;-51
2023/12/03 08:01:34;;;;;;;122.05;23.38;;;0.30;99.90;;;;;;4996008;28;20050;-55
2023/12/03 08:04:00;;;;;;;99.38;22.75;;;0.30;99.90;;;;;;4998647;28;20120;-55
2023/12/03 08:06:26;;;;;;;90.82;22.10;;;0.30;99.90;;;;;;4994997;28;20041;-53
2023/12/03 08:08:52;;;;;;;107.78;22.92;;;0.30;99.90;;;;;;4998851;28;20081;-53
2023/12/03 08:11:19;;;;;;;129.13;23.98;;;0.30;99.90;;;;;;4997378;28;20042;-49
2023/12/03 08:13:45;;;;;;;121.40;21.58;;;0.40;99.90;;;;;;4997047;28;20135;-55
2023/12/03 08:16:11;;;;;;;102.05;21.25;;;0.40;99.90;;;;;;4996541;28;20121;-55
2023/12/03 08:18:38;;;;;;;80.90;17.48;;;0.40;99.90;;;;;;4998232;28;20052;-54
2023/12/03 08:21:03;;;;;;;65.75;16.65;;;0.40;99.90;;;;;;4999159;28;20038;-55
2023/12/03 08:23:32;;;;;;;88.20;18.08;;;0.40;99.90;;;;;;4998229;28;20498;-55
2023/12/03 08:25:58;;;;;;;73.13;16.98;;;0.40;99.90;;;;;;4997253;28;20066;-57
2023/12/03 08:28:24;;;;;;;71.13;16.20;;;0.40;99.90;;;;;;4997802;28;20486;-56
2023/12/03 08:30:49;;;;;;;75.95;17.33;;;0.40;99.90;;;;;;4996881;28;20053;-53
2023/12/03 08:33:15;;;;;;;74.78;17.27;;;0.40;99.90;;;;;;4994753;28;20502;-50
2023/12/03 08:35:41;;;;;;;77.63;16.60;;;0.40;99.90;;;;;;4993486;28;21477;-56
2023/12/03 08:38:07;;;;;;;77.25;16.48;;;0.40;99.90;;;;;;4993905;28;20058;-57
2023/12/03 08:40:33;;;;;;;80.60;18.25;;;0.40;99.90;;;;;;4991800;28;20038;-54
2023/12/03 08:42:59;;;;;;;86.40;17.95;;;0.40;99.90;;;;;;4993076;28;20643;-52
2023/12/03 08:45:25;;;;;;;88.75;17.67;;;0.40;99.90;;;;;;4993097;28;20039;-57
2023/12/03 08:47:51;;;;;;;94.50;19.00;;;0.50;99.90;;;;;;4991937;28;20034;-53
2023/12/03 08:50:17;;;;;;;91.07;19.33;;;0.50;99.90;;;;;;4992810;28;20053;-55
2023/12/03 08:52:43;;;;;;;80.22;17.75;;;0.50;99.90;;;;;;4992223;28;20101;-55
2023/12/03 08:55:08;;;;;;;83.57;18.50;;;0.50;99.90;;;;;;4992141;28;20053;-51
2023/12/03 08:57:39;;;;;;;81.93;19.20;;;0.50;99.90;;;;;;4989971;28;20064;-50
2023/12/03 09:00:08;;;;;;;85.05;19.55;;;0.60;99.90;;;;;;4990455;28;20092;-56
2023/12/03 09:02:33;;;;;;;85.22;18.75;;;0.60;99.90;;;;;;4992736;28;20054;-56
2023/12/03 09:04:59;;;;;;;87.70;20.27;;;0.60;99.90;;;;;;5001556;28;20045;-54
2023/12/03 09:07:27;;;;;;;79.72;18.90;;;0.60;99.90;;;;;;4996821;28;20038;-52
2023/12/03 09:09:53;;;;;;;79.80;19.85;;;0.70;99.90;;;;;;4997042;28;20766;-56
2023/12/03 09:12:18;;;;;;;81.28;21.05;;;0.70;99.90;;;;;;4990240;28;20046;-52
2023/12/03 09:14:44;;;;;;;97.53;21.77;;;0.70;99.90;;;;;;4993766;28;20116;-54
2023/12/03 09:17:10;;;;;;;89.50;21.30;;;0.80;99.90;;;;;;4980815;28;20046;-52
2023/12/03 09:19:35;;;;;;;86.10;21.20;;;0.80;99.90;;;;;;4974790;28;20058;-50
2023/12/03 09:22:01;;;;;;;105.47;22.30;;;0.90;99.90;;;;;;4988842;28;20048;-56
2023/12/03 09:24:27;;;;;;;89.97;22.23;;;0.90;99.90;;;;;;4990181;28;20076;-56
2023/12/03 09:26:52;;;;;;;89.50;22.42;;;0.90;99.90;;;;;;4992547;28;20096;-56
2023/12/03 09:29:19;;;;;;;88.13;22.83;;;1.00;99.90;;;;;;4962855;28;20050;-54
2023/12/03 09:31:45;;;;;;;96.55;23.55;;;1.00;99.90;;;;;;4990659;28;20457;-55
2023/12/03 09:34:10;;;;;;;85.70;22.45;;;1.00;99.90;;;;;;4995298;28;20125;-55
2023/12/03 09:36:36;;;;;;;87.90;24.05;;;1.10;99.90;;;;;;4993716;28;20521;-55
2023/12/03 09:39:04;;;;;;;94.15;24.80;;;1.10;99.90;;;;;;4993418;28;20085;-55
2023/12/03 09:41:33;;;;;;;93.00;24.75;;;1.10;99.90;;;;;;4995247;28;20553;-55
2023/12/03 09:44:03;;;;;;;93.13;25.80;;;1.10;99.90;;;;;;4994103;28;20056;-54
2023/12/03 09:46:31;;;;;;;84.28;26.05;;;1.10;99.90;;;;;;4976216;28;20078;-55
2023/12/03 09:49:01;;;;;;;90.00;26.75;;;1.20;99.90;;;;;;4973945;28;20053;-56
2023/12/03 09:51:29;;;;;;;77.43;25.10;;;1.20;99.90;;;;;;4992795;28;20564;-53
2023/12/03 09:53:58;;;;;;;87.28;26.55;;;1.20;99.90;;;;;;4974749;28;20836;-55
2023/12/03 09:56:25;;;;;;;82.78;26.70;;;1.20;99.90;;;;;;4993701;28;20051;-56
2023/12/03 09:58:51;;;;;;;75.55;26.50;;;1.30;99.90;;;;;;4987772;28;20136;-52
2023/12/03 10:01:17;;;;;;;76.00;26.27;;;1.40;99.90;;;;;;4990858;28;20042;-52
2023/12/03 10:03:43;;;;;;;66.68;26.05;;;1.30;99.90;;;;;;4988156;28;20131;-56
2023/12/03 10:06:10;;;;;;;79.43;27.52;;;1.40;99.90;;;;;;4987132;28;20054;-52
2023/12/03 10:08:39;;;;;;;73.97;25.65;;;1.40;99.90;;;;;;4990555;28;20077;-51
2023/12/03 10:11:05;;;;;;;71.38;25.80;;;1.40;99.90;;;;;;4991423;28;20760;-57
2023/12/03 10:13:34;;;;;;;78.55;26.30;;;1.40;99.90;;;;;;4990796;28;20489;-56
2023/12/03 10:16:00;;;;;;;67.90;27.17;;;1.50;99.90;;;;;;4991104;28;20041;-54
2023/12/03 10:18:26;;;;;;;59.55;25.73;;;1.50;99.90;;;;;;4978799;28;20080;-56
2023/12/03 10:21:12;;;;;;;65.13;25.15;;;1.50;99.90;;;;;;4973389;28;20041;-56
2023/12/03 10:23:38;;;;;;;70.07;25.80;;;1.50;99.90;;;;;;4989666;28;20051;-54
2023/12/03 10:26:11;;;;;;;59.95;25.77;;;1.60;99.90;;;;;;4979910;28;20100;-55
2023/12/03 10:28:37;;;;;;;67.43;26.70;;;1.60;99.90;;;;;;4990707;28;20054;-56
2023/12/03 10:31:03;;;;;;;60.28;26.23;;;1.60;99.90;;;;;;4989733;28;20042;-51
2023/12/03 10:33:29;;;;;;;63.60;26.70;;;1.60;99.90;;;;;;4988954;28;20084;-56
2023/12/03 10:36:04;;;;;;;62.17;26.27;;;1.70;99.90;;;;;;4994316;28;20133;-56
2023/12/03 10:38:41;;;;;;;54.88;25.30;;;1.70;99.90;;;;;;4992121;28;20045;-56
2023/12/03 10:41:13;;;;;;;58.70;26.92;;;1.80;99.90;;;;;;4994661;28;20046;-56
2023/12/03 10:43:41;;;;;;;53.72;26.08;;;1.90;99.90;;;;;;4971890;28;20038;-55
2023/12/03 10:46:11;;;;;;;57.63;26.35;;;1.90;99.90;;;;;;4999148;28;20053;-56
2023/12/03 10:48:37;;;;;;;56.45;26.50;;;2.10;99.90;;;;;;4993704;28;20054;-55
2023/12/03 10:51:12;;;;;;;56.00;27.05;;;2.10;99.90;;;;;;4984711;28;20038;-55
2023/12/03 10:53:38;;;;;;;63.95;27.65;;;2.20;99.90;;;;;;5000492;28;20156;-56
2023/12/03 10:56:05;;;;;;;54.70;26.38;;;2.30;99.90;;;;;;4999356;28;20038;-56
2023/12/03 10:58:36;;;;;;;53.17;26.20;;;2.40;99.90;;;;;;5000255;28;20574;-56
2023/12/03 11:01:22;;;;;;;51.25;25.45;;;2.50;99.90;;;;;;4998089;28;20044;-54
2023/12/03 11:03:57;;;;;;;47.55;24.88;;;2.50;99.90;;;;;;4996300;28;20537;-57
2023/12/03 11:06:25;;;;;;;49.00;24.98;;;2.60;99.90;;;;;;4995596;28;20546;-54
2023/12/03 11:08:55;;;;;;;48.00;24.70;;;2.70;99.90;;;;;;4992020;28;20492;-53
2023/12/03 11:11:21;;;;;;;47.58;25.63;;;2.60;99.90;;;;;;4984822;28;20046;-52
2023/12/03 11:13:57;;;;;;;48.65;24.30;;;2.70;99.90;;;;;;4989214;28;20054;-48
2023/12/03 11:16:27;;;;;;;45.70;24.27;;;2.60;99.90;;;;;;4996212;28;20046;-54
2023/12/03 11:19:03;;;;;;;46.80;25.40;;;2.60;99.90;;;;;;4995901;28;20178;-56
2023/12/03 11:21:51;;;;;;;47.53;24.13;;;2.60;99.90;;;;;;4997614;28;20058;-57
2023/12/03 11:24:20;;;;;;;48.72;25.08;;;2.50;99.90;;;;;;4999599;28;20046;-56
2023/12/03 11:26:46;;;;;;;47.15;26.27;;;2.50;99.90;;;;;;4997006;28;20249;-52
2023/12/03 11:29:13;;;;;;;47.88;25.52;;;2.50;99.90;;;;;;4994358;28;20056;-49
2023/12/03 11:31:38;;;;;;;47.95;24.92;;;2.50;99.90;;;;;;4997615;28;20045;-56
2023/12/03 11:34:05;;;;;;;45.45;24.63;;;2.50;99.90;;;;;;4996735;28;20053;-57
2023/12/03 11:36:45;;;;;;;46.38;24.92;;;2.50;99.90;;;;;;4996797;28;20058;-56
2023/12/03 11:39:11;;;;;;;47.25;24.60;;;2.50;99.90;;;;;;4997549;28;20044;-55
2023/12/03 11:41:42;;;;;;;46.63;25.38;;;2.50;99.90;;;;;;4996222;28;20042;-56
2023/12/03 11:44:21;;;;;;;45.53;25.08;;;2.50;99.90;;;;;;4996203;28;20245;-55
2023/12/03 11:47:04;;;;;;;45.92;24.77;;;2.50;99.90;;;;;;4996269;28;20050;-57
2023/12/03 11:49:32;;;;;;;49.00;25.25;;;2.50;99.90;;;;;;4996639;28;20196;-53
2023/12/03 11:51:59;;;;;;;44.33;24.52;;;2.50;99.90;;;;;;4992966;28;20085;-56
2023/12/03 11:54:28;;;;;;;43.10;23.95;;;2.50;99.90;;;;;;4993172;28;20038;-56
2023/12/03 11:56:54;;;;;;;41.85;24.05;;;2.40;99.90;;;;;;4998172;28;20041;-57
2023/12/03 11:59:21;;;;;;;42.83;23.77;;;2.40;99.90;;;;;;5005407;28;20088;-56
2023/12/03 12:01:47;;;;;;;42.63;23.90;;;2.40;99.90;;;;;;5006534;28;20227;-54
2023/12/03 12:04:23;;;;;;;45.60;24.48;;;2.40;99.90;;;;;;5002602;28;20133;-54
2023/12/03 12:06:53;;;;;;;37.33;21.58;;;2.40;99.90;;;;;;5000844;28;20037;-55
2023/12/03 12:09:22;;;;;;;40.80;22.70;;;2.30;99.90;;;;;;5002609;28;20383;-52
2023/12/03 12:11:51;;;;;;;43.17;22.55;;;2.30;99.90;;;;;;5003167;28;20125;-55
2023/12/03 12:14:18;;;;;;;39.45;22.70;;;2.20;99.90;;;;;;5002245;28;20414;-57
2023/12/03 12:16:47;;;;;;;37.92;23.15;;;2.30;99.90;;;;;;5004595;28;20050;-56
2023/12/03 12:19:13;;;;;;;39.65;22.35;;;2.20;99.90;;;;;;5002461;28;20044;-55
2023/12/03 12:21:56;;;;;;;36.22;21.55;;;2.20;99.90;;;;;;5000218;28;20053;-56
2023/12/03 12:24:22;;;;;;;40.55;22.58;;;2.20;99.90;;;;;;4983455;28;20077;-57
2023/12/03 12:26:49;;;;;;;40.50;22.70;;;2.20;99.90;;;;;;5001231;28;20503;-57
2023/12/03 12:29:16;;;;;;;40.65;22.35;;;2.20;99.90;;;;;;5001401;28;20046;-55
2023/12/03 12:31:42;;;;;;;37.83;22.42;;;2.20;99.90;;;;;;5002078;28;20121;-55